KPPA/PPA METAR and TAF weather

Enter ICAO airport designator
Station Type Date Time Source
KPPA METAR 2021/09/23 23:30 UTC NOAA

KPPA 232330Z AUTO 18012KT 10SM CLR 28/04 A3003 RMK AO2 T02760042


Station Type Date Time Source
KPPA Decoded METAR 2021/09/23 23:30 UTC NOAA

Pampa, Perry Lefors Field Airport, TX, United States (KPPA) 35-36-46N 100-59-46W
Sep 23, 2021 - 07:30 PM EDT / 2021.09.23 2330 UTC
Wind: from the S (180 degrees) at 14 MPH (12 KT):0
Visibility: 10 mile(s):0
Sky conditions: clear
Temperature: 81.7 F (27.6 C)
Dew Point: 39.6 F (4.2 C)
Relative Humidity: 22%
Pressure (altimeter): 30.03 in. Hg (1016 hPa)
ob: KPPA 232330Z AUTO 18012KT 10SM CLR 28/04 A3003 RMK AO2 T02760042
cycle: 23

Station Type Date Time Source
KPPA TAF UTC NOAA

Error!

Example: see airport list